createdAt,value
2023-02-27T00:02:19.056Z,102656.25
2023-02-27T00:04:45.692Z,102687.91
2023-02-27T00:07:13.356Z,102675.88
2023-02-27T00:09:41.876Z,102645.28
2023-02-27T00:12:09.836Z,102624.38
2023-02-27T00:14:36.432Z,102650.63
2023-02-27T00:17:03.123Z,102689.16
2023-02-27T00:19:29.723Z,102687.69
2023-02-27T00:21:56.289Z,102667.91
2023-02-27T00:24:22.841Z,102658.63
2023-02-27T00:26:49.388Z,102648.00
2023-02-27T00:29:17.532Z,102683.84
2023-02-27T00:31:44.239Z,102544.63
2023-02-27T00:34:10.914Z,102677.25
2023-02-27T00:36:37.483Z,102673.16
2023-02-27T00:39:04.384Z,102700.97
2023-02-27T00:41:31.092Z,102647.53
2023-02-27T00:43:57.569Z,102647.19
2023-02-27T00:46:24.265Z,102695.53
2023-02-27T00:48:51.132Z,102686.38
2023-02-27T00:51:20.093Z,102658.84
2023-02-27T00:53:46.699Z,102631.78
2023-02-27T00:56:14.721Z,102545.25
2023-02-27T00:58:41.361Z,102625.09
2023-02-27T01:01:08.064Z,102678.50
2023-02-27T01:03:34.731Z,102556.50
2023-02-27T01:06:01.374Z,102647.91
2023-02-27T01:08:27.943Z,102681.91
2023-02-27T01:10:55.973Z,102611.44
2023-02-27T01:13:23.164Z,102565.63
2023-02-27T01:15:49.801Z,102557.41
2023-02-27T01:18:16.466Z,102642.75
2023-02-27T01:20:43.088Z,102690.03
2023-02-27T01:23:12.917Z,102662.88
2023-02-27T01:25:39.663Z,102653.44
2023-02-27T01:28:06.300Z,102668.00
2023-02-27T01:30:32.821Z,102673.50
2023-02-27T01:32:59.496Z,102657.56
2023-02-27T01:35:26.161Z,102616.06
2023-02-27T01:37:52.752Z,102663.88
2023-02-27T01:40:19.412Z,102673.69
2023-02-27T01:42:47.194Z,102672.41
2023-02-27T01:45:33.168Z,102672.69
2023-02-27T01:48:16.902Z,102519.88
2023-02-27T01:50:49.678Z,102655.09
2023-02-27T01:53:18.537Z,102664.88
2023-02-27T01:55:46.706Z,102619.97
2023-02-27T01:58:15.896Z,102634.72
2023-02-27T02:00:42.750Z,102661.50
2023-02-27T02:03:21.329Z,102638.22
2023-02-27T02:05:51.989Z,102567.47
2023-02-27T02:08:20.740Z,102573.72
2023-02-27T02:10:50.242Z,102561.69
2023-02-27T02:13:18.594Z,102626.22
2023-02-27T02:16:10.335Z,102559.03
2023-02-27T02:18:47.411Z,102629.50
2023-02-27T02:21:32.602Z,102664.13
2023-02-27T02:24:34.814Z,102646.31
2023-02-27T02:27:40.570Z,102643.47
2023-02-27T02:30:32.733Z,102615.28
2023-02-27T02:33:29.371Z,102656.19
2023-02-27T02:36:08.747Z,102663.09
2023-02-27T02:38:56.667Z,102665.44
2023-02-27T02:41:45.478Z,102657.38
2023-02-27T02:44:19.053Z,102645.59
2023-02-27T02:47:01.046Z,102634.06
2023-02-27T02:50:06.165Z,102662.97
2023-02-27T02:52:59.186Z,102662.31
2023-02-27T02:55:47.336Z,102632.03
2023-02-27T02:58:26.223Z,102660.13
2023-02-27T03:01:03.638Z,102640.66
2023-02-27T03:03:35.028Z,102528.09
2023-02-27T03:06:09.363Z,102659.19
2023-02-27T03:08:48.452Z,102650.97
2023-02-27T03:11:15.406Z,102642.19
2023-02-27T03:13:52.944Z,102638.69
2023-02-27T03:16:25.029Z,102545.00
2023-02-27T03:19:09.862Z,102653.00
2023-02-27T03:21:38.704Z,102637.53
2023-02-27T03:24:09.921Z,102655.69
2023-02-27T03:26:42.156Z,102678.97
2023-02-27T03:29:14.705Z,102571.03
2023-02-27T03:31:46.933Z,102685.44
2023-02-27T03:34:34.173Z,102687.53
2023-02-27T03:37:28.595Z,102664.53
2023-02-27T03:40:06.412Z,102667.38
2023-02-27T03:42:41.775Z,102657.16
2023-02-27T03:45:53.218Z,102673.78
2023-02-27T03:48:20.076Z,102662.25
2023-02-27T03:50:47.222Z,102663.78
2023-02-27T03:53:25.420Z,102673.56
2023-02-27T03:55:53.683Z,102639.44
2023-02-27T03:58:20.645Z,102685.84
2023-02-27T04:00:47.339Z,102671.41
2023-02-27T04:03:14.487Z,102667.25
2023-02-27T04:05:42.326Z,102667.03
2023-02-27T04:08:30.439Z,102699.91
2023-02-27T04:11:18.914Z,102704.09
2023-02-27T04:14:03.909Z,102706.91
2023-02-27T04:16:36.427Z,102620.88
2023-02-27T04:19:18.782Z,102709.50
2023-02-27T04:22:18.277Z,102719.09
2023-02-27T04:25:05.752Z,102713.59
2023-02-27T04:27:53.148Z,102722.19
2023-02-27T04:30:27.119Z,102724.03
2023-02-27T04:33:12.052Z,102728.94
2023-02-27T04:35:47.582Z,102656.78
2023-02-27T04:38:27.739Z,102712.75
2023-02-27T04:41:36.501Z,102714.44
2023-02-27T04:44:06.412Z,102737.25
2023-02-27T04:46:36.191Z,102675.84
2023-02-27T04:49:08.992Z,102607.25
2023-02-27T04:51:42.641Z,102728.66
2023-02-27T04:54:15.418Z,102688.66
2023-02-27T04:56:51.525Z,102602.97
2023-02-27T04:59:42.633Z,102704.09
2023-02-27T05:02:16.156Z,102704.88
2023-02-27T05:04:45.406Z,102713.88
2023-02-27T05:07:17.655Z,102708.81
2023-02-27T05:09:53.808Z,102705.16
2023-02-27T05:12:23.478Z,102724.88
2023-02-27T05:15:06.274Z,102723.25
2023-02-27T05:17:38.964Z,102715.06
2023-02-27T05:20:09.038Z,102729.44
2023-02-27T05:22:53.918Z,102724.00
2023-02-27T05:25:29.702Z,102670.63
2023-02-27T05:28:41.973Z,102723.22
2023-02-27T05:31:41.468Z,102724.81
2023-02-27T05:34:32.439Z,102703.34
2023-02-27T05:37:01.864Z,102682.31
2023-02-27T05:39:31.469Z,102720.88
2023-02-27T05:42:03.845Z,102676.41
2023-02-27T05:44:34.918Z,102650.50
2023-02-27T05:47:07.943Z,102706.53
2023-02-27T05:49:43.816Z,102716.41
2023-02-27T05:52:16.227Z,102728.09
2023-02-27T05:54:51.758Z,102722.59
2023-02-27T05:57:25.390Z,102718.66
2023-02-27T06:00:10.858Z,102750.69
2023-02-27T06:02:42.487Z,102752.59
2023-02-27T06:05:10.677Z,102734.66
2023-02-27T06:07:38.094Z,102749.78
2023-02-27T06:10:05.751Z,102630.94
2023-02-27T06:12:32.347Z,102745.72
2023-02-27T06:14:58.957Z,102722.81
2023-02-27T06:17:25.634Z,102718.72
2023-02-27T06:19:52.198Z,102777.19
2023-02-27T06:22:18.783Z,102650.91
2023-02-27T06:24:45.713Z,102774.88
2023-02-27T06:27:12.222Z,102765.50
2023-02-27T06:29:38.789Z,102776.81
2023-02-27T06:32:05.500Z,102783.53
2023-02-27T06:34:32.008Z,102779.13
2023-02-27T06:36:58.674Z,102789.72
2023-02-27T06:39:25.266Z,102645.66
2023-02-27T06:41:51.765Z,102651.47
2023-02-27T06:44:19.551Z,102753.06
2023-02-27T06:46:46.203Z,102790.06
2023-02-27T06:49:13.364Z,102805.09
2023-02-27T06:51:39.877Z,102797.59
2023-02-27T06:54:06.436Z,102796.91
2023-02-27T06:56:32.937Z,102812.50
2023-02-27T06:58:59.668Z,102804.38
2023-02-27T07:01:26.418Z,102824.25
2023-02-27T07:03:53.051Z,102836.31
2023-02-27T07:06:19.522Z,102835.97
2023-02-27T07:09:01.044Z,102815.19
2023-02-27T07:11:32.674Z,102840.34
2023-02-27T07:13:59.376Z,102827.78
2023-02-27T07:16:26.392Z,102839.78
2023-02-27T07:18:53.172Z,102829.63
2023-02-27T07:21:19.726Z,102819.09
2023-02-27T07:23:46.353Z,102693.00
2023-02-27T07:26:13.164Z,102812.63
2023-02-27T07:28:39.696Z,102842.63
2023-02-27T07:31:06.272Z,102800.75
2023-02-27T07:33:33.964Z,102790.97
2023-02-27T07:36:00.533Z,102831.50
2023-02-27T07:38:28.783Z,102753.00
2023-02-27T07:40:55.527Z,102827.59
2023-02-27T07:43:22.074Z,102794.00
2023-02-27T07:45:50.938Z,102840.31
2023-02-27T07:48:18.760Z,102823.84
2023-02-27T07:50:45.307Z,102845.84
2023-02-27T07:53:13.332Z,102729.25
2023-02-27T07:55:39.891Z,102743.34
2023-02-27T07:58:06.484Z,102825.50
2023-02-27T08:00:33.037Z,102829.38
2023-02-27T08:03:00.512Z,102840.56
2023-02-27T08:05:27.092Z,102638.50
2023-02-27T08:07:53.600Z,102849.91
2023-02-27T08:10:20.218Z,102845.34
2023-02-27T08:12:46.878Z,102853.50
2023-02-27T08:15:14.111Z,102828.09
2023-02-27T08:17:40.633Z,102763.44
2023-02-27T08:20:08.136Z,102756.66
2023-02-27T08:22:34.641Z,102854.44
2023-02-27T08:25:01.248Z,102854.34
2023-02-27T08:27:27.924Z,102849.38
2023-02-27T08:29:54.456Z,102805.44
2023-02-27T08:32:21.296Z,102849.91
2023-02-27T08:34:47.849Z,102824.56
2023-02-27T08:37:14.377Z,102768.47
2023-02-27T08:39:40.940Z,102849.00
2023-02-27T08:42:08.069Z,102867.75
2023-02-27T08:44:34.640Z,102845.53
2023-02-27T08:47:01.220Z,102835.63
2023-02-27T08:49:27.813Z,102872.53
2023-02-27T08:51:54.813Z,102869.31
2023-02-27T08:54:21.460Z,102839.16
2023-02-27T08:56:48.148Z,102782.59
2023-02-27T08:59:15.486Z,102838.31
2023-02-27T09:01:43.513Z,102815.22
2023-02-27T09:04:10.098Z,102784.59
2023-02-27T09:06:37.296Z,102803.94
2023-02-27T09:09:04.467Z,102854.78
2023-02-27T09:11:31.388Z,102879.00
2023-02-27T09:13:58.775Z,102871.88
2023-02-27T09:16:26.117Z,102805.91
2023-02-27T09:18:52.963Z,102871.72
2023-02-27T09:21:20.571Z,102867.91
2023-02-27T09:23:47.166Z,102790.38
2023-02-27T09:26:13.800Z,102852.38
2023-02-27T09:28:40.344Z,102856.34
2023-02-27T09:31:08.598Z,102788.53
2023-02-27T09:33:37.335Z,102877.41
2023-02-27T09:36:05.643Z,102858.91
2023-02-27T09:38:34.504Z,102847.13
2023-02-27T09:41:02.051Z,102867.19
2023-02-27T09:43:39.536Z,102797.53
2023-02-27T09:48:52.109Z,102871.13
2023-02-27T09:51:19.734Z,102868.25
2023-02-27T09:53:49.700Z,102865.88
2023-02-27T09:56:23.356Z,102868.59
2023-02-27T09:59:27.696Z,102866.91
2023-02-27T10:02:00.879Z,102869.97
2023-02-27T10:04:43.366Z,102851.31
2023-02-27T10:07:35.081Z,102865.69
2023-02-27T10:10:07.458Z,102855.16
2023-02-27T10:12:41.751Z,102859.06
2023-02-27T10:15:11.236Z,102864.03
2023-02-27T10:17:44.490Z,102837.50
2023-02-27T10:20:30.660Z,102813.44
2023-02-27T10:23:01.427Z,102825.03
2023-02-27T10:25:31.999Z,102833.44
2023-02-27T10:28:11.104Z,102838.19
2023-02-27T10:30:38.096Z,102857.63
2023-02-27T10:33:10.532Z,102872.31
2023-02-27T10:35:39.869Z,102841.88
2023-02-27T10:38:17.890Z,102861.75
2023-02-27T10:40:46.268Z,102853.50
2023-02-27T10:43:19.014Z,102827.41
2023-02-27T10:45:45.539Z,102739.47
2023-02-27T10:48:13.657Z,102846.00
2023-02-27T10:50:45.835Z,102845.06
2023-02-27T10:53:23.045Z,102842.97
2023-02-27T10:56:03.958Z,102826.69
2023-02-27T10:58:34.935Z,102829.53
2023-02-27T11:01:09.510Z,102831.97
2023-02-27T11:03:41.406Z,102816.59
2023-02-27T11:06:41.874Z,102808.75
2023-02-27T11:09:21.460Z,102813.09
2023-02-27T11:11:48.936Z,102732.00
2023-02-27T11:14:35.805Z,102811.22
2023-02-27T11:17:03.220Z,102807.34
2023-02-27T11:19:36.057Z,102782.97
2023-02-27T11:22:24.457Z,102789.75
2023-02-27T11:25:09.230Z,102769.50
2023-02-27T11:27:35.896Z,102753.47
2023-02-27T11:30:06.581Z,102790.00
2023-02-27T11:32:46.788Z,102792.94
2023-02-27T11:35:26.673Z,102801.03
2023-02-27T11:37:56.149Z,102756.91
2023-02-27T11:40:30.857Z,102772.81
2023-02-27T11:43:03.726Z,102746.66
2023-02-27T11:46:16.248Z,102794.50
2023-02-27T11:48:35.705Z,102798.81
2023-02-27T11:51:08.344Z,102786.44
2023-02-27T11:53:53.616Z,102804.94
2023-02-27T11:56:25.018Z,102779.53
2023-02-27T11:59:04.231Z,102731.75
2023-02-27T12:01:38.689Z,102775.50
2023-02-27T12:04:17.792Z,102796.31
2023-02-27T12:06:50.477Z,102792.25
2023-02-27T12:09:28.165Z,102784.03
2023-02-27T12:11:56.398Z,102716.25
2023-02-27T12:14:31.230Z,102738.94
2023-02-27T12:17:08.626Z,102766.88
2023-02-27T12:19:55.868Z,102740.09
2023-02-27T12:22:35.446Z,102763.69
2023-02-27T12:25:16.253Z,102679.88
2023-02-27T12:27:57.161Z,102740.50
2023-02-27T12:30:31.710Z,102758.16
2023-02-27T12:33:09.633Z,102746.72
2023-02-27T12:35:36.128Z,102743.28
2023-02-27T12:38:05.238Z,102772.09
2023-02-27T12:41:27.199Z,102716.06
2023-02-27T12:44:04.187Z,102776.72
2023-02-27T12:46:40.622Z,102751.72
2023-02-27T12:49:21.975Z,102758.50
2023-02-27T12:52:03.072Z,102776.59
2023-02-27T12:54:39.388Z,102776.53
2023-02-27T12:57:05.871Z,102767.13
2023-02-27T12:59:51.469Z,102741.56
2023-02-27T13:02:39.658Z,102672.50
2023-02-27T13:05:24.074Z,102666.69
2023-02-27T13:07:59.132Z,102726.78
2023-02-27T13:10:41.539Z,102661.81
2023-02-27T13:13:34.786Z,102741.13
2023-02-27T13:16:08.425Z,102716.59
2023-02-27T13:18:47.303Z,102743.63
2023-02-27T13:21:19.670Z,102744.56
2023-02-27T13:24:33.556Z,102714.50
2023-02-27T13:27:34.325Z,102728.03
2023-02-27T13:30:03.947Z,102737.59
2023-02-27T13:32:59.023Z,102651.13
2023-02-27T13:36:07.002Z,102750.31
2023-02-27T13:38:47.449Z,102742.00
2023-02-27T13:41:20.273Z,102755.75
2023-02-27T13:43:52.442Z,102722.72
2023-02-27T13:46:22.537Z,102755.03
2023-02-27T13:48:54.446Z,102742.28
2023-02-27T13:51:39.402Z,102735.09
2023-02-27T13:54:18.342Z,102744.63
2023-02-27T13:56:48.012Z,102667.81
2023-02-27T13:59:26.495Z,102739.63
2023-02-27T14:01:59.827Z,102751.78
2023-02-27T14:04:30.871Z,102752.19
2023-02-27T14:07:01.579Z,102753.53
2023-02-27T14:09:36.060Z,102741.59
2023-02-27T14:12:06.198Z,102653.38
2023-02-27T14:14:50.082Z,102744.22
2023-02-27T14:17:35.113Z,102748.38
2023-02-27T14:20:12.408Z,102738.25
2023-02-27T14:23:17.534Z,102760.03
2023-02-27T14:26:15.790Z,102754.91
2023-02-27T14:28:55.655Z,102758.50
2023-02-27T14:31:30.889Z,102759.75
2023-02-27T14:34:04.954Z,102719.94
2023-02-27T14:36:44.393Z,102739.91
2023-02-27T14:39:21.264Z,102731.38
2023-02-27T14:42:21.038Z,102743.16
2023-02-27T14:44:49.889Z,102670.84
2023-02-27T14:47:31.695Z,102659.19
2023-02-27T14:49:59.365Z,102662.50
2023-02-27T14:52:30.209Z,102639.13
2023-02-27T14:55:07.595Z,102624.31
2023-02-27T14:57:34.110Z,102691.13
2023-02-27T15:00:00.654Z,102701.13
2023-02-27T15:02:35.358Z,102632.94
2023-02-27T15:05:01.825Z,102738.47
2023-02-27T15:07:31.946Z,102701.34
2023-02-27T15:10:05.000Z,102701.59
2023-02-27T15:12:36.985Z,102712.84
2023-02-27T15:15:06.142Z,102675.25
2023-02-27T15:17:43.284Z,102727.63
2023-02-27T15:20:36.723Z,102726.88
2023-02-27T15:23:27.618Z,102713.59
2023-02-27T15:25:59.280Z,102687.50
2023-02-27T15:28:38.074Z,102714.47
2023-02-27T15:31:07.358Z,102701.97
2023-02-27T15:33:34.256Z,102703.16
2023-02-27T15:36:01.492Z,102679.25
2023-02-27T15:38:31.735Z,102654.47
2023-02-27T15:41:00.889Z,102695.69
2023-02-27T15:43:29.473Z,102650.75
2023-02-27T15:45:58.107Z,102570.22
2023-02-27T15:48:25.651Z,102701.88
2023-02-27T15:50:55.241Z,102718.38
2023-02-27T15:53:27.299Z,102704.66
2023-02-27T15:56:00.839Z,102679.56
2023-02-27T15:58:35.506Z,102726.41
2023-02-27T16:01:07.733Z,102710.22
2023-02-27T16:03:42.516Z,102689.22
2023-02-27T16:06:12.411Z,102726.97
2023-02-27T16:08:45.851Z,102715.78
2023-02-27T16:11:30.020Z,102724.25
2023-02-27T16:13:57.881Z,102651.56
2023-02-27T16:16:28.294Z,102730.53
2023-02-27T16:18:58.484Z,102733.19
2023-02-27T16:21:27.620Z,102656.25
2023-02-27T16:23:55.011Z,102726.25
2023-02-27T16:26:21.794Z,102744.31
2023-02-27T16:28:52.737Z,102650.75
2023-02-27T16:31:30.432Z,102731.22
2023-02-27T16:34:00.277Z,102743.16
2023-02-27T16:36:30.104Z,102738.53
2023-02-27T16:38:57.157Z,102728.63
2023-02-27T16:41:24.829Z,102713.66
2023-02-27T16:43:53.186Z,102754.59
2023-02-27T16:46:20.394Z,102759.41
2023-02-27T16:48:55.248Z,102682.69
2023-02-27T16:51:25.020Z,102760.69
2023-02-27T16:53:52.799Z,102748.75
2023-02-27T16:56:32.381Z,102770.22
2023-02-27T16:59:03.030Z,102638.97
2023-02-27T17:01:29.582Z,102773.25
2023-02-27T17:03:57.123Z,102755.56
2023-02-27T17:06:23.623Z,102775.88
2023-02-27T17:08:50.246Z,102676.53
2023-02-27T17:11:16.789Z,102727.75
2023-02-27T17:13:43.310Z,102752.31
2023-02-27T17:16:10.572Z,102785.22
2023-02-27T17:18:37.080Z,102788.88
2023-02-27T17:21:04.341Z,102783.22
2023-02-27T17:23:30.869Z,102788.72
2023-02-27T17:25:57.415Z,102790.53
2023-02-27T17:28:24.256Z,102788.84
2023-02-27T17:30:51.227Z,102688.78
2023-02-27T17:33:18.076Z,102767.97
2023-02-27T17:35:44.661Z,102765.91
2023-02-27T17:38:11.415Z,102806.75
2023-02-27T17:40:39.324Z,102784.38
2023-02-27T17:43:06.117Z,102774.53
2023-02-27T17:45:32.864Z,102793.25
2023-02-27T17:47:59.599Z,102778.59
2023-02-27T17:50:26.320Z,102807.59
2023-02-27T17:52:52.910Z,102774.66
2023-02-27T17:55:19.753Z,102771.88
2023-02-27T17:57:46.375Z,102787.81
2023-02-27T18:00:15.189Z,102784.53
2023-02-27T18:02:44.202Z,102804.75
2023-02-27T18:05:10.939Z,102834.34
2023-02-27T18:07:37.576Z,102800.59
2023-02-27T18:10:05.826Z,102822.22
2023-02-27T18:12:32.712Z,102802.53
2023-02-27T18:14:59.267Z,102712.53
2023-02-27T18:17:25.913Z,102817.38
2023-02-27T18:19:52.548Z,102813.06
2023-02-27T18:22:21.578Z,102821.81
2023-02-27T18:24:51.665Z,102857.91
2023-02-27T18:27:18.315Z,102809.00
2023-02-27T18:29:44.852Z,102713.06
2023-02-27T18:32:11.501Z,102847.69
2023-02-27T18:34:40.445Z,102842.22
2023-02-27T18:37:07.481Z,102635.06
2023-02-27T18:39:34.053Z,102827.53
2023-02-27T18:42:00.857Z,102698.63
2023-02-27T18:44:27.859Z,102776.50
2023-02-27T18:46:55.033Z,102817.78
2023-02-27T18:49:21.810Z,102854.38
2023-02-27T18:51:48.876Z,102814.34
2023-02-27T18:54:15.526Z,102842.41
2023-02-27T18:56:42.227Z,102718.41
2023-02-27T18:59:08.934Z,102793.06
2023-02-27T19:01:37.816Z,102855.94
2023-02-27T19:04:06.450Z,102758.03
2023-02-27T19:06:36.782Z,102876.25
2023-02-27T19:09:16.084Z,102872.59
2023-02-27T19:11:45.074Z,102787.69
2023-02-27T19:14:14.439Z,102845.88
2023-02-27T19:16:41.522Z,102838.16
2023-02-27T19:19:09.837Z,102865.63
2023-02-27T19:21:36.946Z,102757.53
2023-02-27T19:24:03.702Z,102756.28
2023-02-27T19:26:32.603Z,102710.56
2023-02-27T19:28:59.457Z,102734.84
2023-02-27T19:31:26.166Z,102842.38
2023-02-27T19:33:52.851Z,102820.78
2023-02-27T19:36:21.542Z,102865.50
2023-02-27T19:38:49.101Z,102768.66
2023-02-27T19:41:16.884Z,102867.94
2023-02-27T19:43:44.395Z,102840.03
2023-02-27T19:46:14.504Z,102836.59
2023-02-27T19:48:42.829Z,102741.63
2023-02-27T19:51:12.096Z,102766.22
2023-02-27T19:53:40.252Z,102858.03
2023-02-27T19:56:09.318Z,102857.81
2023-02-27T19:58:36.934Z,102754.81
2023-02-27T20:01:04.433Z,102825.97
2023-02-27T20:03:31.474Z,102779.03
2023-02-27T20:05:58.072Z,102875.56
2023-02-27T20:08:24.681Z,102805.44
2023-02-27T20:10:54.008Z,102885.50
2023-02-27T20:13:20.576Z,102833.69
2023-02-27T20:15:57.682Z,102770.94
2023-02-27T20:18:24.895Z,102884.78
2023-02-27T20:21:01.741Z,102883.22
2023-02-27T20:23:29.156Z,102844.06
2023-02-27T20:25:55.821Z,102761.22
2023-02-27T20:28:22.853Z,102745.38
2023-02-27T20:30:49.757Z,102754.72
2023-02-27T20:33:16.349Z,102886.22
2023-02-27T20:35:43.133Z,102883.53
2023-02-27T20:38:09.904Z,102808.47
2023-02-27T20:40:36.494Z,102883.75
2023-02-27T20:43:04.031Z,102740.69
2023-02-27T20:45:30.601Z,102806.44
2023-02-27T20:47:57.271Z,102862.66
2023-02-27T20:50:23.863Z,102776.09
2023-02-27T20:52:54.026Z,102754.25
2023-02-27T20:55:20.876Z,102851.09
2023-02-27T20:57:47.431Z,102764.97
2023-02-27T21:00:15.150Z,102747.41
2023-02-27T21:02:41.770Z,102850.25
2023-02-27T21:05:08.866Z,102843.19
2023-02-27T21:07:35.807Z,102841.75
2023-02-27T21:10:02.408Z,102877.03
2023-02-27T21:12:29.054Z,102691.25
2023-02-27T21:14:56.829Z,102741.78
2023-02-27T21:17:26.003Z,102768.44
2023-02-27T21:19:52.520Z,102887.00
2023-02-27T21:22:19.027Z,102755.03
2023-02-27T21:24:46.715Z,102756.72
2023-02-27T21:27:13.306Z,102853.53
2023-02-27T21:29:39.901Z,102872.97
2023-02-27T21:32:07.393Z,102773.66
2023-02-27T21:34:34.103Z,102777.75
2023-02-27T21:37:01.496Z,102852.00
2023-02-27T21:39:28.430Z,102849.09
2023-02-27T21:41:55.187Z,102768.44
2023-02-27T21:44:26.492Z,102777.91
2023-02-27T21:46:53.999Z,102767.81
2023-02-27T21:49:28.804Z,102750.69
2023-02-27T21:51:55.441Z,102864.91
2023-02-27T21:54:22.069Z,102882.97
2023-02-27T21:56:49.343Z,102773.69
2023-02-27T21:59:18.276Z,102886.41
2023-02-27T22:01:48.416Z,102902.97
2023-02-27T22:04:16.696Z,102877.94
2023-02-27T22:06:43.412Z,102883.53
2023-02-27T22:09:10.274Z,102885.44
2023-02-27T22:11:37.363Z,102812.06
2023-02-27T22:14:06.050Z,102868.31
2023-02-27T22:16:32.965Z,102777.56
2023-02-27T22:19:04.150Z,102889.53
2023-02-27T22:21:31.128Z,102773.13
2023-02-27T22:23:58.093Z,102876.41
2023-02-27T22:26:28.263Z,102833.41
2023-02-27T22:28:59.192Z,102746.25
2023-02-27T22:31:34.497Z,102836.03
2023-02-27T22:34:07.864Z,102862.56
2023-02-27T22:36:36.954Z,102858.66
2023-02-27T22:39:05.394Z,102840.59
2023-02-27T22:41:35.166Z,102859.75
2023-02-27T22:44:02.294Z,102757.09
2023-02-27T22:46:36.155Z,102895.47
2023-02-27T22:49:23.511Z,102899.13
2023-02-27T22:51:51.913Z,102899.13
2023-02-27T22:54:20.482Z,102853.38
2023-02-27T22:56:50.656Z,102856.34
2023-02-27T22:59:17.390Z,102883.41
2023-02-27T23:01:44.036Z,102816.16
2023-02-27T23:04:11.588Z,102887.31
2023-02-27T23:06:40.021Z,102874.22
2023-02-27T23:09:09.362Z,102811.47
2023-02-27T23:11:36.255Z,102871.13
2023-02-27T23:14:02.884Z,102880.81
2023-02-27T23:16:29.665Z,102812.81
2023-02-27T23:18:58.641Z,102798.28
2023-02-27T23:21:34.831Z,102919.81
2023-02-27T23:24:06.422Z,102897.84
2023-02-27T23:26:37.621Z,102873.38
2023-02-27T23:29:04.826Z,102922.03
2023-02-27T23:31:34.268Z,102926.59
2023-02-27T23:34:02.024Z,102827.81
2023-02-27T23:36:28.613Z,102881.44
2023-02-27T23:38:55.117Z,102799.63
2023-02-27T23:41:21.798Z,102867.44
2023-02-27T23:44:10.995Z,102922.41
2023-02-27T23:46:38.175Z,102836.03
2023-02-27T23:49:04.788Z,102907.19
2023-02-27T23:51:31.710Z,102893.88
2023-02-27T23:53:59.692Z,102924.97
2023-02-27T23:56:29.440Z,102906.13
2023-02-27T23:59:06.156Z,102931.50
